St-Mathias Seaplane Base

CSV9 · Quebec, 加拿大

罗盘
风向 的 风向 220°
风: 9 kt, 3 beaufort

添加一条跑道以查看侧风和逆风信息。

添置 跑道
0 ft 2.000 4.000 6.000 8.000 10.000
Cloud Cloud Cloud Cloud Cloud Cloud Cloud Cloud
OVC 6.600
METAR CYHU 232000Z AUTO 22009KT 9SM OVC066 06/01 A2944 RMK SLP971

METAR St-Mathias Seaplane Base - CSV9

St-Mathias Seaplane Base是,加拿大中的水上飞机基地。 该机场位于纬度45,50280和经度-73,25220。 该机场的伪ICAO代码为CSV9。 机场在Montreal FIR中。

该航空气象观测是针对Montréal / Saint-Hubert Airport在2024年2月23日 15:00, 当地时间进行的。

机场观察

风向为220°,速度为9 kt。

可见度为9 mi。

有乌云密布在6.600 ft的高度。 破损或更高的上限为6.600 ft。

温度为6 °C,阵风为1 °C。 露点为1 °C,相对湿度为71%。 海平面上的气压为29,44 inHg (QNH)。

白天

今天,太阳从06:42升起,在17:30降落。 这适用于St-Mathias Seaplane Base,世界夏令时可能有所不同。 当地时间与世界标准时间之间的时差为-5 小时。 当前,没有夏令时有效。

公司介绍

我们没有关于这个机场的公司信息。

体会

到Vliegles.nl去找飞行课程,跳伞和其他飞行体验。 浏览页面,了解St-Mathias Seaplane Base附近所有可用的活动。 你也可以使用搜索功能来寻找你所在地附近的特定飞行课程、跳伞或其他飞行体验。

乌云

6.600 ft OVC 乌云密布

温度 & 天气

温度 6 °C
露点 1 °C
相对湿度 71%
风寒 1 °C
Kp-index 0 (0-9)

评论

SLP971海平面压力为29,44 inHg (29,44 inHg)

白天

日出
06:42
中午
12:07
日落
17:31 (2:18)

小工具

你想在你的网站上有一个关于St-Mathias Seaplane Base的当前航空天气(METAR)的小部件吗?

显示HTML代码
?>